Address 0xb864250ff5ea1779e4aaf04097d1d5a20da6c107 11

 
 
Txn Hash Method
Block
From
To
Value [Txn Fee]
0x019d388b999815fa0ce01000c40d6d7eaf6fdfbcbed2401b622a6f795e3a2ff9Transfer From Wi...238392992022-01-17 20:27:2411 days 5 hrs ago0xb864250ff5ea1779e4aaf04097d1d5a20da6c107OUT 0x0dfbee143b42b41efc5a6f87bfd1ffc78c2f0ac90 MATIC0.0026002830
0x3811b6049cedc19f6275a6cfd3aeb6b1bb1ca2d41e52855495c81a3496aecfd4Transfer From Wi...236542962022-01-13 2:17:2815 days 23 hrs ago0xb864250ff5ea1779e4aaf04097d1d5a20da6c107OUT 0xf0f49873c50765239f6f9534ba13c4fe16ed5f2e0 MATIC0.0036520530
0x5359d674facc001b5c23a675896784352f237ad4339ae69ecefa40eb2fdbc17e0x415565b0236542722022-01-13 2:16:4015 days 23 hrs ago0xb864250ff5ea1779e4aaf04097d1d5a20da6c107OUT 0x: Exchange Proxy0 MATIC0.0421727100
0x652231b665d956d2b5b4854f4560c9e811767d79bcb52443a2694f426a33677eTransfer From Wi...235697032022-01-10 21:02:2818 days 4 hrs ago0xb864250ff5ea1779e4aaf04097d1d5a20da6c107OUT 0x0dfbee143b42b41efc5a6f87bfd1ffc78c2f0ac90 MATIC0.00136774414
0x906eea5a3c7d14a1780a856ff469aa948ae6a79a2782bfa5c8181fb0999208c90x415565b0235696932022-01-10 21:02:0818 days 4 hrs ago0xb864250ff5ea1779e4aaf04097d1d5a20da6c107OUT 0x: Exchange Proxy0 MATIC0.03475956132
0xb6fb4a2fe9b4c0a5b1bff4d7618e4d6c2effbc1d0abf60afe57a177398ad9779Approve235696792022-01-10 21:01:4018 days 4 hrs ago0xb864250ff5ea1779e4aaf04097d1d5a20da6c107OUT USD Coin0 MATIC0.001759224630.1
0x610e5e3c9809b22c39c651eea13f9e56b52c18adca3a95f46ad2fd5bb81a25e70x415565b0235665842022-01-10 19:06:2318 days 6 hrs ago0xb864250ff5ea1779e4aaf04097d1d5a20da6c107OUT 0x: Exchange Proxy0 MATIC0.034495842123
0x638e8ea1df98bdd5285686d46f8ee8ec3bd11ae8c12b0edce764fb1d93eec6330x6d3dba57235665842022-01-10 19:06:2318 days 6 hrs ago0xb864250ff5ea1779e4aaf04097d1d5a20da6c107OUT0x3d21866d00808835789d806d1cb279a491c6944f369 MATIC0.000646516830.6
0x7bcfe967af13392b4f2e38c7981a5c2c932dd317c9ab946515ad03d4a00516ce0x415565b0235664282022-01-10 18:58:5518 days 6 hrs ago0xb864250ff5ea1779e4aaf04097d1d5a20da6c107OUT 0x: Exchange Proxy0 MATIC0.01618644868
0x94076a9a63bf4420608fdc58820868cc8841fa9d6794871b28c57f9233febdd7Transfer From Wi...234291732022-01-07 5:09:4021 days 20 hrs ago0xb864250ff5ea1779e4aaf04097d1d5a20da6c107OUT 0x0dfbee143b42b41efc5a6f87bfd1ffc78c2f0ac90 MATIC0.034782500
0x4e39673884293069c84bc2c026846833c68ffeb0b2cfec234470e360afb55a95Transfer From Wi...234291702022-01-07 5:09:3421 days 20 hrs ago0xb864250ff5ea1779e4aaf04097d1d5a20da6c107OUT 0xf0f49873c50765239f6f9534ba13c4fe16ed5f2e0 MATIC0.0608695500
0xf26415a5bc735426f31e52878a22903aba12d97b677093967f5fea16455683f6Transfer From Wi...234289912022-01-07 5:03:2421 days 20 hrs ago0xb864250ff5ea1779e4aaf04097d1d5a20da6c107OUT 0x0dfbee143b42b41efc5a6f87bfd1ffc78c2f0ac90 MATIC0.043326500
0x71c90eb294f642d6198388baef4dcf30e4177a0283a95053bbf523e1210f601dTransfer From Wi...234289892022-01-07 5:03:2021 days 20 hrs ago0xb864250ff5ea1779e4aaf04097d1d5a20da6c107OUT 0x0dfbee143b42b41efc5a6f87bfd1ffc78c2f0ac90 MATIC0.043338500
0xf9f3fbb2ef6635e1579a62dc6b7ebcdabf0e58dc06b76fcfea9e3372319db6b5Transfer From Wi...234289892022-01-07 5:03:2021 days 20 hrs ago0xb864250ff5ea1779e4aaf04097d1d5a20da6c107OUT 0x0dfbee143b42b41efc5a6f87bfd1ffc78c2f0ac90 MATIC0.034782500
0xb0635b342eebdfcc7b31169d4d9e607d0ed025afe4ead620dc4e7d5c357d68fb0x415565b0234284442022-01-07 4:42:3621 days 21 hrs ago0xb864250ff5ea1779e4aaf04097d1d5a20da6c107OUT 0x: Exchange Proxy0 MATIC0.28016891,100
0x257e2451715b4ac4730cbf682b30342b0898d9889dbc1ad3686d65066351985bAny Swap Out Und...225236462021-12-14 18:59:0345 days 6 hrs ago0xb864250ff5ea1779e4aaf04097d1d5a20da6c107OUT 0x4f3aff3a747fcade12598081e80c6605a8be192f0 MATIC0.0023083230
0x0c51fb050d37df5641842e354e43d3f439e1bb76ffa848b6c62f31a432ce58efAny Swap Out Und...222858322021-12-08 17:34:2951 days 8 hrs ago0xb864250ff5ea1779e4aaf04097d1d5a20da6c107OUT 0x4f3aff3a747fcade12598081e80c6605a8be192f0 MATIC0.002307630
0xf30bf4d3e3e6d1e26e1302ad288b9003dccc2d0c81ffe5efde7124ff27ebd737Approve222858012021-12-08 17:33:2351 days 8 hrs ago0xb864250ff5ea1779e4aaf04097d1d5a20da6c107OUT 0xc2132d05d31c914a87c6611c10748aeb04b58e8f0 MATIC0.0015621630
0x5a2d4caaf495c57e9c0ebbbb55e75306e55f3183bc4855383220c7c301b81833Transfer From Wi...222635342021-12-08 3:08:1351 days 22 hrs ago0xb864250ff5ea1779e4aaf04097d1d5a20da6c107OUT 0xf0f49873c50765239f6f9534ba13c4fe16ed5f2e0 MATIC0.005547846639.960000001
0x0592b0827716910970e68f2ad45dcbbc131b90ac3ebbe79827441b749b850727Transfer From Wi...222200342021-12-07 0:29:0053 days 1 hr ago0xb864250ff5ea1779e4aaf04097d1d5a20da6c107OUT 0x0dfbee143b42b41efc5a6f87bfd1ffc78c2f0ac90 MATIC0.0025999230
0x3e2aeab977a1afeb4660a109aba3353af1d3797054f290a03245ede60690d29eTransfer From Wi...222123222021-12-06 19:33:2753 days 6 hrs ago0xb864250ff5ea1779e4aaf04097d1d5a20da6c107OUT 0x0dfbee143b42b41efc5a6f87bfd1ffc78c2f0ac90 MATIC0.0026002830
0x61fbcd7be982f14fe52dfd947c5f923ea6f499074312eb5efd4f5e1a312f8154Transfer From Wi...221296812021-12-04 15:22:3655 days 10 hrs ago0xb864250ff5ea1779e4aaf04097d1d5a20da6c107OUT 0xf0f49873c50765239f6f9534ba13c4fe16ed5f2e0 MATIC0.0041650530
0x2bd60ce9ad5dbd47bef4f47bd4d41dc2684278828f060dab7337328fed9343f3Transfer221061812021-12-04 0:06:3256 days 1 hr ago0xb864250ff5ea1779e4aaf04097d1d5a20da6c107OUT 0xc2132d05d31c914a87c6611c10748aeb04b58e8f0 MATIC0.0018087345
0x87a279114c255247c3bfda0cda87d08145d9a5a825e8a92895c8e78e1df73c7cTransfer From Wi...221036952021-12-03 22:30:1856 days 3 hrs ago0xb864250ff5ea1779e4aaf04097d1d5a20da6c107OUT 0xf0f49873c50765239f6f9534ba13c4fe16ed5f2e0 MATIC0.00458168733
0x8a497969b0a58cac4615cb03674ed0e24ab06038a7b3a636ae62e727337651cfTransfer From Wi...221036822021-12-03 22:29:5256 days 3 hrs ago0xb864250ff5ea1779e4aaf04097d1d5a20da6c107OUT 0x0dfbee143b42b41efc5a6f87bfd1ffc78c2f0ac90 MATIC0.003146338836.3
[ Download CSV Export 
Latest 3 internal transactions
Parent Txn Hash Block From To Value
0x7bcfe967af13392b4f2e38c7981a5c2c932dd317c9ab946515ad03d4a00516ce235664282022-01-10 18:58:5518 days 6 hrs ago 0xdb6f1920a889355780af7570773609bd8cb1f4980xb864250ff5ea1779e4aaf04097d1d5a20da6c107401.8128246611847788 MATIC
0x7efd8ad6a2abb458083268c024df7af8ad7c6c5921c7b6c0d192575a4c5e2ac2220975112021-12-03 18:37:1856 days 7 hrs ago 0xdb6f1920a889355780af7570773609bd8cb1f4980xb864250ff5ea1779e4aaf04097d1d5a20da6c107225.000000214127097825 MATIC
0x96c40a08b72d4412c97a4555b9599d8e7e93f543fe120761419c9877e978c454212524532021-11-11 16:31:5878 days 9 hrs ago Synapse: Bridge0xb864250ff5ea1779e4aaf04097d1d5a20da6c1070.02 MATIC
[ Download CSV Export 
Loading

Contract Name:
0 MATIC

Compiler Version
0

Optimization Enabled:
0 MATIC

Other Settings:
-NA-
Block Transaction Gas Used Reward
Age Block Fee Address BC Fee Address Voting Power Jailed Incoming
Block Uncle Number Difficulty Gas Used Reward
Loading
Loading
Make sure to use the "Vote Down" button for any spammy posts, and the "Vote Up" for interesting conversations.